createdAt,value
2019-04-04T00:02:11.838Z,22.40
2019-04-04T00:04:40.489Z,22.30
2019-04-04T00:07:08.063Z,22.20
2019-04-04T00:09:37.243Z,22.40
2019-04-04T00:12:04.093Z,22.50
2019-04-04T00:14:30.929Z,22.40
2019-04-04T00:16:58.381Z,22.60
2019-04-04T00:19:24.944Z,22.60
2019-04-04T00:21:54.793Z,22.40
2019-04-04T00:24:21.797Z,22.50
2019-04-04T00:26:48.420Z,22.50
2019-04-04T00:29:17.114Z,22.60
2019-04-04T00:31:43.496Z,22.50
2019-04-04T00:34:10.195Z,22.40
2019-04-04T00:36:36.896Z,22.40
2019-04-04T00:39:09.087Z,22.40
2019-04-04T00:41:34.924Z,22.30
2019-04-04T00:44:01.620Z,22.30
2019-04-04T00:46:29.053Z,22.30
2019-04-04T00:48:57.061Z,22.40
2019-04-04T00:51:23.632Z,22.50
2019-04-04T00:53:50.238Z,22.30
2019-04-04T00:56:18.155Z,22.30
2019-04-04T00:58:46.457Z,22.30
2019-04-04T01:01:13.249Z,22.30
2019-04-04T01:03:40.000Z,22.40
2019-04-04T01:06:06.629Z,22.50
2019-04-04T01:08:33.403Z,22.60
2019-04-04T01:11:00.005Z,22.70
2019-04-04T01:13:27.661Z,22.70
2019-04-04T01:15:54.492Z,22.70
2019-04-04T01:18:21.093Z,22.80
2019-04-04T01:20:50.429Z,22.90
2019-04-04T01:23:16.064Z,22.80
2019-04-04T01:25:42.774Z,22.80
2019-04-04T01:28:09.374Z,22.70
2019-04-04T01:30:38.062Z,22.70
2019-04-04T01:33:04.813Z,22.40
2019-04-04T01:35:31.410Z,22.40
2019-04-04T01:38:01.333Z,22.60
2019-04-04T01:40:28.031Z,22.70
2019-04-04T01:42:54.476Z,22.80
2019-04-04T01:45:22.091Z,22.70
2019-04-04T01:47:48.733Z,22.70
2019-04-04T01:50:15.213Z,22.80
2019-04-04T01:52:41.789Z,22.90
2019-04-04T01:55:08.244Z,22.90
2019-04-04T01:57:34.732Z,22.90
2019-04-04T02:00:05.305Z,22.80
2019-04-04T02:02:33.921Z,23.00
2019-04-04T02:05:02.332Z,23.00
2019-04-04T02:07:29.723Z,22.90
2019-04-04T02:09:56.911Z,23.10
2019-04-04T02:12:23.471Z,23.10
2019-04-04T02:14:50.160Z,23.00
2019-04-04T02:17:16.623Z,22.90
2019-04-04T02:19:43.231Z,23.00
2019-04-04T02:22:09.857Z,22.90
2019-04-04T02:24:36.365Z,22.80
2019-04-04T02:27:02.939Z,22.80
2019-04-04T02:29:29.524Z,22.70
2019-04-04T02:32:00.660Z,22.80
2019-04-04T02:34:27.264Z,22.70
2019-04-04T02:36:53.828Z,22.60
2019-04-04T02:39:20.412Z,22.50
2019-04-04T02:41:48.490Z,22.50
2019-04-04T02:44:15.267Z,22.30
2019-04-04T02:46:44.459Z,22.00
2019-04-04T02:49:10.125Z,22.00
2019-04-04T02:51:41.158Z,21.90
2019-04-04T02:54:05.903Z,21.90
2019-04-04T02:56:36.000Z,21.90
2019-04-04T02:59:02.195Z,22.00
2019-04-04T03:01:31.765Z,21.80
2019-04-04T03:03:57.025Z,21.90
2019-04-04T03:06:24.418Z,21.90
2019-04-04T03:08:51.697Z,21.90
2019-04-04T03:11:21.176Z,21.70
2019-04-04T03:13:46.530Z,21.60
2019-04-04T03:16:13.006Z,21.60
2019-04-04T03:18:39.586Z,21.60
2019-04-04T03:21:06.069Z,21.40
2019-04-04T03:23:33.847Z,21.40
2019-04-04T03:26:00.509Z,21.30
2019-04-04T03:28:31.352Z,21.40
2019-04-04T03:31:02.536Z,21.40
2019-04-04T03:33:29.009Z,21.50
2019-04-04T03:35:51.905Z,21.60
2019-04-04T03:38:18.370Z,21.70
2019-04-04T03:40:44.975Z,21.90
2019-04-04T03:43:15.854Z,22.00
2019-04-04T03:45:39.935Z,22.30
2019-04-04T03:48:06.391Z,22.20
2019-04-04T03:50:32.863Z,22.10
2019-04-04T03:52:59.345Z,22.20
2019-04-04T03:55:27.859Z,22.00
2019-04-04T03:57:55.153Z,21.80
2019-04-04T04:00:28.776Z,21.70
2019-04-04T04:02:55.303Z,21.60
2019-04-04T04:05:25.946Z,21.70
2019-04-04T04:07:52.731Z,21.70
2019-04-04T04:10:19.308Z,21.60
2019-04-04T04:12:45.785Z,21.50
2019-04-04T04:15:12.263Z,21.60
2019-04-04T04:17:38.848Z,21.60
2019-04-04T04:20:05.382Z,21.50
2019-04-04T04:22:31.971Z,21.50
2019-04-04T04:25:02.158Z,21.70
2019-04-04T04:27:26.836Z,21.60
2019-04-04T04:29:53.404Z,21.80
2019-04-04T04:32:21.858Z,22.00
2019-04-04T04:34:48.217Z,21.90
2019-04-04T04:37:15.030Z,22.00
2019-04-04T04:39:41.634Z,22.10
2019-04-04T04:42:08.177Z,22.20
2019-04-04T04:44:37.875Z,22.20
2019-04-04T04:47:03.063Z,22.10
2019-04-04T04:49:29.681Z,22.20
2019-04-04T04:51:56.167Z,22.40
2019-04-04T04:54:24.631Z,22.50
2019-04-04T04:56:51.033Z,22.50
2019-04-04T04:59:17.518Z,22.70
2019-04-04T05:01:43.969Z,22.80
2019-04-04T05:04:10.465Z,22.90
2019-04-04T05:06:37.016Z,22.70
2019-04-04T05:09:04.903Z,22.90
2019-04-04T05:11:31.471Z,23.20
2019-04-04T05:13:58.159Z,23.20
2019-04-04T05:16:26.451Z,23.50
2019-04-04T05:18:53.041Z,23.70
2019-04-04T05:21:25.633Z,23.70
2019-04-04T05:23:49.019Z,23.90
2019-04-04T05:26:15.641Z,23.90
2019-04-04T05:28:42.617Z,24.00
2019-04-04T05:31:09.284Z,24.30
2019-04-04T05:33:36.199Z,24.60
2019-04-04T05:36:04.854Z,24.90
2019-04-04T05:38:31.166Z,25.00
2019-04-04T05:40:58.041Z,24.90
2019-04-04T05:43:24.777Z,24.90
2019-04-04T05:45:51.637Z,25.30
2019-04-04T05:48:18.346Z,25.50
2019-04-04T05:50:45.402Z,25.50
2019-04-04T05:53:12.151Z,25.30
2019-04-04T05:55:39.808Z,25.50
2019-04-04T05:58:07.040Z,25.40
2019-04-04T06:00:33.633Z,25.50
2019-04-04T06:03:00.221Z,25.60
2019-04-04T06:05:27.232Z,25.90
2019-04-04T06:07:54.491Z,26.00
2019-04-04T06:10:20.998Z,26.20
2019-04-04T06:12:47.547Z,26.10
2019-04-04T06:15:14.494Z,26.20
2019-04-04T06:17:41.171Z,26.10
2019-04-04T06:20:07.821Z,25.80
2019-04-04T06:22:34.299Z,25.60
2019-04-04T06:25:00.796Z,25.90
2019-04-04T06:27:27.372Z,25.80
2019-04-04T06:29:55.597Z,26.00
2019-04-04T06:32:22.606Z,26.30
2019-04-04T06:34:49.252Z,26.20
2019-04-04T06:37:16.025Z,26.10
2019-04-04T06:39:42.585Z,26.40
2019-04-04T06:42:11.348Z,26.80
2019-04-04T06:44:37.946Z,26.90
2019-04-04T06:47:05.076Z,27.00
2019-04-04T06:49:33.277Z,27.20
2019-04-04T06:52:00.323Z,27.30
2019-04-04T06:54:26.831Z,27.20
2019-04-04T06:56:53.686Z,27.20
2019-04-04T06:59:20.544Z,27.30
2019-04-04T07:01:48.058Z,27.40
2019-04-04T07:04:17.163Z,27.60
2019-04-04T07:06:43.103Z,27.80
2019-04-04T07:09:09.931Z,28.00
2019-04-04T07:11:36.529Z,28.10
2019-04-04T07:14:03.108Z,28.00
2019-04-04T07:16:29.685Z,28.10
2019-04-04T07:18:57.203Z,28.10
2019-04-04T07:21:24.530Z,28.00
2019-04-04T07:23:52.618Z,28.00
2019-04-04T07:26:20.258Z,28.10
2019-04-04T07:28:50.113Z,28.20
2019-04-04T07:31:16.541Z,28.40
2019-04-04T07:33:44.464Z,28.40
2019-04-04T07:36:12.127Z,28.10
2019-04-04T07:38:38.687Z,28.10
2019-04-04T07:41:06.111Z,28.40
2019-04-04T07:43:33.443Z,28.50
2019-04-04T07:46:15.319Z,28.70
2019-04-04T07:48:28.702Z,29.00
2019-04-04T07:50:58.201Z,29.00
2019-04-04T07:53:23.732Z,29.30
2019-04-04T07:55:50.217Z,29.50
2019-04-04T07:58:16.794Z,29.50
2019-04-04T08:00:43.368Z,29.60
2019-04-04T08:03:10.055Z,29.80
2019-04-04T08:05:36.538Z,29.90
2019-04-04T08:08:03.406Z,30.10
2019-04-04T08:10:29.944Z,30.30
2019-04-04T08:12:56.637Z,30.20
2019-04-04T08:15:23.248Z,30.00
2019-04-04T08:17:49.812Z,29.70
2019-04-04T08:20:16.298Z,29.40
2019-04-04T08:22:42.886Z,29.20
2019-04-04T08:25:09.414Z,29.10
2019-04-04T08:27:35.981Z,29.30
2019-04-04T08:30:05.188Z,29.30
2019-04-04T08:32:31.753Z,29.20
2019-04-04T08:34:58.565Z,29.30
2019-04-04T08:37:25.140Z,29.60
2019-04-04T08:39:51.851Z,29.80
2019-04-04T08:42:18.870Z,30.00
2019-04-04T08:44:46.219Z,30.20
2019-04-04T08:47:12.764Z,30.10
2019-04-04T08:49:39.389Z,30.10
2019-04-04T08:52:16.192Z,29.90
2019-04-04T08:54:34.468Z,29.90
2019-04-04T08:57:01.451Z,29.60
2019-04-04T08:59:29.011Z,29.40
2019-04-04T09:01:55.621Z,29.10
2019-04-04T09:04:24.002Z,28.80
2019-04-04T09:06:52.191Z,28.80
2019-04-04T09:09:19.125Z,28.60
2019-04-04T09:11:45.714Z,28.50
2019-04-04T09:14:12.472Z,28.70
2019-04-04T09:16:39.145Z,28.90
2019-04-04T09:19:05.722Z,29.10
2019-04-04T09:21:32.309Z,29.00
2019-04-04T09:24:00.740Z,29.10
2019-04-04T09:26:27.503Z,28.90
2019-04-04T09:28:54.573Z,28.70
2019-04-04T09:31:21.208Z,28.70
2019-04-04T09:33:47.805Z,28.90
2019-04-04T09:36:14.598Z,29.10
2019-04-04T09:38:41.373Z,29.00
2019-04-04T09:41:08.185Z,29.10
2019-04-04T09:43:35.023Z,29.20
2019-04-04T09:46:01.784Z,29.30
2019-04-04T09:48:28.889Z,29.60
2019-04-04T09:50:55.623Z,29.80
2019-04-04T09:53:22.106Z,29.70
2019-04-04T09:55:48.609Z,29.70
2019-04-04T09:58:15.207Z,29.90
2019-04-04T10:00:42.284Z,30.20
2019-04-04T10:03:09.092Z,30.10
2019-04-04T10:05:35.670Z,29.80
2019-04-04T10:08:02.673Z,29.80
2019-04-04T10:10:29.448Z,30.10
2019-04-04T10:12:56.514Z,30.00
2019-04-04T10:15:22.972Z,29.90
2019-04-04T10:17:49.643Z,30.10
2019-04-04T10:20:16.597Z,30.40
2019-04-04T10:22:43.315Z,30.30
2019-04-04T10:25:09.856Z,30.30
2019-04-04T10:27:36.908Z,30.30
2019-04-04T10:30:06.821Z,30.40
2019-04-04T10:32:33.453Z,30.30
2019-04-04T10:35:00.068Z,30.40
2019-04-04T10:37:27.236Z,30.30
2019-04-04T10:39:55.339Z,30.20
2019-04-04T10:42:22.356Z,30.20
2019-04-04T10:44:49.399Z,30.10
2019-04-04T10:47:16.151Z,30.30
2019-04-04T10:49:42.836Z,30.20
2019-04-04T10:52:09.745Z,30.20
2019-04-04T10:54:38.533Z,30.20
2019-04-04T10:57:05.650Z,30.30
2019-04-04T10:59:32.696Z,30.30
2019-04-04T11:02:00.999Z,30.50
2019-04-04T11:04:27.757Z,30.30
2019-04-04T11:06:54.722Z,30.20
2019-04-04T11:09:21.301Z,30.20
2019-04-04T11:11:48.453Z,30.10
2019-04-04T11:14:15.375Z,30.00
2019-04-04T11:16:42.530Z,30.10
2019-04-04T11:19:09.816Z,30.10
2019-04-04T11:21:36.489Z,30.30
2019-04-04T11:24:04.080Z,30.40
2019-04-04T11:26:30.544Z,30.40
2019-04-04T11:28:57.153Z,30.30
2019-04-04T11:31:23.730Z,30.30
2019-04-04T11:33:50.429Z,30.50
2019-04-04T11:36:18.201Z,30.70
2019-04-04T11:38:44.786Z,30.60
2019-04-04T11:41:11.248Z,30.40
2019-04-04T11:43:38.279Z,30.30
2019-04-04T11:46:05.432Z,30.30
2019-04-04T11:48:32.127Z,30.20
2019-04-04T11:50:58.719Z,30.10
2019-04-04T11:53:25.221Z,30.40
2019-04-04T11:55:52.083Z,30.40
2019-04-04T11:58:18.741Z,30.10
2019-04-04T12:00:47.737Z,30.10
2019-04-04T12:03:14.239Z,29.90
2019-04-04T12:05:40.803Z,30.00
2019-04-04T12:08:07.405Z,30.00
2019-04-04T12:10:34.162Z,30.10
2019-04-04T12:13:01.183Z,30.20
2019-04-04T12:15:27.829Z,30.30
2019-04-04T12:17:54.886Z,30.50
2019-04-04T12:20:21.607Z,30.60
2019-04-04T12:22:48.206Z,30.70
2019-04-04T12:25:14.677Z,30.70
2019-04-04T12:27:41.379Z,30.70
2019-04-04T12:30:10.510Z,30.70
2019-04-04T12:32:37.141Z,30.40
2019-04-04T12:35:03.847Z,29.90
2019-04-04T12:37:31.449Z,29.90
2019-04-04T12:39:59.968Z,30.10
2019-04-04T12:42:26.484Z,30.10
2019-04-04T12:44:53.130Z,30.10
2019-04-04T12:47:20.131Z,30.10
2019-04-04T12:49:47.634Z,29.90
2019-04-04T12:52:14.209Z,29.80
2019-04-04T12:54:41.906Z,29.60
2019-04-04T12:57:08.621Z,29.50
2019-04-04T12:59:35.256Z,29.30
2019-04-04T13:02:03.999Z,29.50
2019-04-04T13:04:32.089Z,29.50
2019-04-04T13:06:59.902Z,29.80
2019-04-04T13:09:27.024Z,30.00
2019-04-04T13:11:53.879Z,30.20
2019-04-04T13:14:20.918Z,30.50
2019-04-04T13:16:47.490Z,30.40
2019-04-04T13:19:14.081Z,30.60
2019-04-04T13:21:40.551Z,30.60
2019-04-04T13:24:07.399Z,30.70
2019-04-04T13:26:34.196Z,30.90
2019-04-04T13:29:01.341Z,31.10
2019-04-04T13:31:29.829Z,31.10
2019-04-04T13:33:58.643Z,31.10
2019-04-04T13:36:26.708Z,31.00
2019-04-04T13:38:55.114Z,30.90
2019-04-04T13:41:22.524Z,31.00
2019-04-04T13:43:53.429Z,31.10
2019-04-04T13:46:18.365Z,31.00
2019-04-04T13:48:45.284Z,30.90
2019-04-04T13:51:11.893Z,30.90
2019-04-04T13:53:41.259Z,30.50
2019-04-04T13:56:08.144Z,30.70
2019-04-04T13:58:35.023Z,30.70
2019-04-04T14:01:01.748Z,30.70
2019-04-04T14:03:28.716Z,30.80
2019-04-04T14:05:56.749Z,30.80
2019-04-04T14:08:25.363Z,30.80
2019-04-04T14:10:58.027Z,30.90
2019-04-04T14:13:21.491Z,31.10
2019-04-04T14:15:48.643Z,31.10
2019-04-04T14:18:21.296Z,31.30
2019-04-04T14:21:02.648Z,31.30
2019-04-04T14:23:19.490Z,31.40
2019-04-04T14:25:47.288Z,31.30
2019-04-04T14:28:14.396Z,31.00
2019-04-04T14:30:41.438Z,30.70
2019-04-04T14:33:10.174Z,30.80
2019-04-04T14:35:36.766Z,30.90
2019-04-04T14:38:03.558Z,31.00
2019-04-04T14:40:30.544Z,30.90
2019-04-04T14:42:57.279Z,30.90
2019-04-04T14:45:24.428Z,30.80
2019-04-04T14:47:51.480Z,30.90
2019-04-04T14:50:18.134Z,30.70
2019-04-04T14:52:45.170Z,30.60
2019-04-04T14:55:12.187Z,30.80
2019-04-04T14:57:38.955Z,30.60
2019-04-04T15:00:09.673Z,30.50
2019-04-04T15:02:36.531Z,30.50
2019-04-04T15:05:05.021Z,30.60
2019-04-04T15:07:31.867Z,30.60
2019-04-04T15:09:58.461Z,30.50
2019-04-04T15:12:25.108Z,30.30
2019-04-04T15:14:52.052Z,30.30
2019-04-04T15:17:18.891Z,30.30
2019-04-04T15:19:45.627Z,30.30
2019-04-04T15:22:12.262Z,30.40
2019-04-04T15:24:39.010Z,30.40
2019-04-04T15:27:07.798Z,30.40
2019-04-04T15:29:34.630Z,30.50
2019-04-04T15:32:01.501Z,30.40
2019-04-04T15:34:28.466Z,30.20
2019-04-04T15:36:55.427Z,30.40
2019-04-04T15:39:22.295Z,30.30
2019-04-04T15:41:49.159Z,30.20
2019-04-04T15:44:16.184Z,30.10
2019-04-04T15:46:43.336Z,30.30
2019-04-04T15:49:10.524Z,30.40
2019-04-04T15:51:37.427Z,30.30
2019-04-04T15:54:04.368Z,30.20
2019-04-04T15:56:31.105Z,29.80
2019-04-04T15:58:58.153Z,29.50
2019-04-04T16:01:25.051Z,29.40
2019-04-04T16:03:52.035Z,29.30
2019-04-04T16:06:19.097Z,29.40
2019-04-04T16:08:46.789Z,29.40
2019-04-04T16:11:13.581Z,29.40
2019-04-04T16:13:40.420Z,29.20
2019-04-04T16:16:07.261Z,29.10
2019-04-04T16:18:34.415Z,29.20
2019-04-04T16:21:01.500Z,29.30
2019-04-04T16:23:28.501Z,29.20
2019-04-04T16:25:55.475Z,29.30
2019-04-04T16:28:22.189Z,29.40
2019-04-04T16:30:49.156Z,29.40
2019-04-04T16:33:17.243Z,29.40
2019-04-04T16:35:44.678Z,29.20
2019-04-04T16:38:12.646Z,29.10
2019-04-04T16:40:39.671Z,29.10
2019-04-04T16:43:06.652Z,29.10
2019-04-04T16:45:33.620Z,28.90
2019-04-04T16:48:00.597Z,28.80
2019-04-04T16:50:27.642Z,28.80
2019-04-04T16:52:54.353Z,28.80
2019-04-04T16:55:21.470Z,28.90
2019-04-04T16:57:48.854Z,28.90
2019-04-04T17:00:15.897Z,29.10
2019-04-04T17:02:42.814Z,29.20
2019-04-04T17:05:11.143Z,29.20
2019-04-04T17:07:38.517Z,29.20
2019-04-04T17:10:06.153Z,29.30
2019-04-04T17:12:33.131Z,29.30
2019-04-04T17:15:00.172Z,29.30
2019-04-04T17:17:27.116Z,29.30
2019-04-04T17:19:54.447Z,29.20
2019-04-04T17:22:21.798Z,29.10
2019-04-04T17:24:48.744Z,29.10
2019-04-04T17:27:16.192Z,29.10
2019-04-04T17:29:43.242Z,29.10
2019-04-04T17:32:10.282Z,29.10
2019-04-04T17:34:37.643Z,29.00
2019-04-04T17:37:04.842Z,29.00
2019-04-04T17:39:32.546Z,28.80
2019-04-04T17:41:59.999Z,28.80
2019-04-04T17:44:27.515Z,28.70
2019-04-04T17:46:56.455Z,28.50
2019-04-04T17:49:23.937Z,28.50
2019-04-04T17:51:51.362Z,28.40
2019-04-04T17:54:20.876Z,28.30
2019-04-04T17:56:48.011Z,28.30
2019-04-04T17:59:14.790Z,28.30
2019-04-04T18:01:42.124Z,28.20
2019-04-04T18:04:09.344Z,28.10
2019-04-04T18:06:36.328Z,28.00
2019-04-04T18:09:06.451Z,28.00
2019-04-04T18:11:33.963Z,27.80
2019-04-04T18:14:00.644Z,27.90
2019-04-04T18:16:27.542Z,27.80
2019-04-04T18:18:54.519Z,27.80
2019-04-04T18:21:22.863Z,27.70
2019-04-04T18:23:49.934Z,27.80
2019-04-04T18:26:16.553Z,27.70
2019-04-04T18:28:44.210Z,27.50
2019-04-04T18:31:11.253Z,27.50
2019-04-04T18:33:38.934Z,27.50
2019-04-04T18:36:05.954Z,27.50
2019-04-04T18:38:33.208Z,27.70
2019-04-04T18:41:00.078Z,27.60
2019-04-04T18:43:27.193Z,27.70
2019-04-04T18:45:54.239Z,27.60
2019-04-04T18:48:23.439Z,27.50
2019-04-04T18:50:50.357Z,27.60
2019-04-04T18:53:17.403Z,27.60
2019-04-04T18:55:45.474Z,27.50
2019-04-04T18:58:12.458Z,27.20
2019-04-04T19:00:39.513Z,27.30
2019-04-04T19:03:06.480Z,27.40
2019-04-04T19:05:35.983Z,27.40
2019-04-04T19:08:03.098Z,27.30
2019-04-04T19:10:30.134Z,27.10
2019-04-04T19:13:05.311Z,27.00
2019-04-04T19:15:27.486Z,27.00
2019-04-04T19:17:55.249Z,26.90
2019-04-04T19:20:22.825Z,26.90
2019-04-04T19:22:50.800Z,27.00
2019-04-04T19:25:18.150Z,26.90
2019-04-04T19:27:45.374Z,26.80
2019-04-04T19:30:12.733Z,26.80
2019-04-04T19:32:39.979Z,26.80
2019-04-04T19:35:07.231Z,26.90
2019-04-04T19:37:35.407Z,26.90
2019-04-04T19:40:04.131Z,26.90
2019-04-04T19:42:31.550Z,27.10
2019-04-04T19:44:58.700Z,27.30
2019-04-04T19:47:26.677Z,27.30
2019-04-04T19:49:54.247Z,27.40
2019-04-04T19:52:21.684Z,27.50
2019-04-04T19:54:48.632Z,27.50
2019-04-04T19:57:16.944Z,27.50
2019-04-04T19:59:46.395Z,27.30
2019-04-04T20:02:13.643Z,27.30
2019-04-04T20:04:40.898Z,27.30
2019-04-04T20:07:09.163Z,27.20
2019-04-04T20:09:36.884Z,27.10
2019-04-04T20:12:04.419Z,27.10
2019-04-04T20:14:31.700Z,27.00
2019-04-04T20:16:58.780Z,26.90
2019-04-04T20:19:25.864Z,26.80
2019-04-04T20:21:56.485Z,26.60
2019-04-04T20:24:24.351Z,26.60
2019-04-04T20:26:52.612Z,26.60
2019-04-04T20:29:19.765Z,26.70
2019-04-04T20:31:46.887Z,26.50
2019-04-04T20:34:13.939Z,26.40
2019-04-04T20:36:41.382Z,26.40
2019-04-04T20:39:08.536Z,26.40
2019-04-04T20:41:35.714Z,26.40
2019-04-04T20:44:03.267Z,26.40
2019-04-04T20:46:31.008Z,26.40
2019-04-04T20:49:00.664Z,26.30
2019-04-04T20:51:28.812Z,26.30
2019-04-04T20:53:56.198Z,26.20
2019-04-04T20:56:23.600Z,26.10
2019-04-04T20:58:51.659Z,25.90
2019-04-04T21:01:19.267Z,26.10
2019-04-04T21:03:46.784Z,26.10
2019-04-04T21:06:14.051Z,26.00
2019-04-04T21:08:42.029Z,26.10
2019-04-04T21:11:09.862Z,26.20
2019-04-04T21:13:37.957Z,26.30
2019-04-04T21:16:06.125Z,26.30
2019-04-04T21:18:33.348Z,26.30
2019-04-04T21:21:00.701Z,26.20
2019-04-04T21:23:28.822Z,26.30
2019-04-04T21:25:55.955Z,26.20
2019-04-04T21:28:23.320Z,26.30
2019-04-04T21:30:50.457Z,26.30
2019-04-04T21:33:20.477Z,26.30
2019-04-04T21:35:48.117Z,26.40
2019-04-04T21:38:15.653Z,26.50
2019-04-04T21:40:42.703Z,26.60
2019-04-04T21:43:09.952Z,26.60
2019-04-04T21:45:37.202Z,26.60
2019-04-04T21:48:04.445Z,26.60
2019-04-04T21:50:34.151Z,26.60
2019-04-04T21:53:01.097Z,26.50
2019-04-04T21:55:28.465Z,26.60
2019-04-04T21:57:55.942Z,26.60
2019-04-04T22:00:23.077Z,26.60
2019-04-04T22:02:54.172Z,26.60
2019-04-04T22:05:21.957Z,26.70
2019-04-04T22:07:49.622Z,26.70
2019-04-04T22:10:18.503Z,26.70
2019-04-04T22:12:47.297Z,26.80
2019-04-04T22:15:14.754Z,26.80
2019-04-04T22:17:41.812Z,26.80
2019-04-04T22:20:10.829Z,26.80
2019-04-04T22:22:37.760Z,26.80
2019-04-04T22:25:05.319Z,26.80
2019-04-04T22:27:32.346Z,26.70
2019-04-04T22:29:59.067Z,26.70
2019-04-04T22:32:25.974Z,26.80
2019-04-04T22:34:53.019Z,26.80
2019-04-04T22:37:20.287Z,26.80
2019-04-04T22:39:47.280Z,26.80
2019-04-04T22:42:14.915Z,26.80
2019-04-04T22:44:42.157Z,26.60
2019-04-04T22:47:09.531Z,26.50
2019-04-04T22:49:36.782Z,26.40
2019-04-04T22:52:04.215Z,26.50
2019-04-04T22:54:31.676Z,26.30
2019-04-04T22:56:58.924Z,26.30
2019-04-04T22:59:26.630Z,26.20
2019-04-04T23:01:54.251Z,26.30
2019-04-04T23:04:21.783Z,26.30
2019-04-04T23:06:49.076Z,26.20
2019-04-04T23:09:16.712Z,26.10
2019-04-04T23:11:44.296Z,26.10
2019-04-04T23:14:11.616Z,26.00
2019-04-04T23:16:39.247Z,25.90
2019-04-04T23:19:06.959Z,25.90
2019-04-04T23:21:35.012Z,25.80
2019-04-04T23:24:01.970Z,25.80
2019-04-04T23:26:28.977Z,25.70
2019-04-04T23:28:56.044Z,25.70
2019-04-04T23:31:23.097Z,25.70
2019-04-04T23:33:50.435Z,25.60
2019-04-04T23:36:17.511Z,25.50
2019-04-04T23:38:45.076Z,25.40
2019-04-04T23:41:12.735Z,25.50
2019-04-04T23:43:39.759Z,25.50
2019-04-04T23:46:08.918Z,25.50
2019-04-04T23:48:35.905Z,25.50
2019-04-04T23:51:03.645Z,25.30
2019-04-04T23:53:31.149Z,25.40
2019-04-04T23:55:58.555Z,25.40
2019-04-04T23:58:26.017Z,25.50
